createdAt,value
2022-07-28T00:01:25.344Z,1.00
2022-07-28T00:04:05.282Z,0.99
2022-07-28T00:06:38.812Z,1.03
2022-07-28T00:09:12.271Z,1.09
2022-07-28T00:11:54.347Z,1.28
2022-07-28T00:14:37.271Z,1.27
2022-07-28T00:24:29.251Z,1.39
2022-07-28T00:27:09.292Z,1.33
2022-07-28T00:29:50.011Z,1.49
2022-07-28T00:32:31.279Z,1.56
2022-07-28T00:35:08.137Z,1.32
2022-07-28T00:37:49.311Z,1.38
2022-07-28T00:51:01.266Z,1.34
2022-07-28T00:53:36.006Z,1.22
2022-07-28T00:56:12.313Z,1.24
2022-07-28T00:58:46.974Z,1.42
2022-07-28T01:01:24.932Z,1.27
2022-07-28T01:04:03.099Z,1.23
2022-07-28T01:17:35.195Z,1.31
2022-07-28T01:20:23.280Z,1.18
2022-07-28T01:23:21.204Z,1.31
2022-07-28T01:26:27.282Z,1.38
2022-07-28T01:29:14.473Z,1.17
2022-07-28T01:32:06.301Z,1.22
2022-07-28T01:45:23.283Z,1.33
2022-07-28T01:48:03.239Z,1.29
2022-07-28T01:50:45.283Z,1.32
2022-07-28T01:53:21.964Z,1.38
2022-07-28T01:56:05.263Z,1.42
2022-07-28T01:58:41.083Z,1.42
2022-07-28T02:11:33.243Z,1.37
2022-07-28T02:14:17.634Z,1.34
2022-07-28T02:16:57.860Z,1.32
2022-07-28T02:19:39.252Z,1.43
2022-07-28T02:22:20.229Z,1.47
2022-07-28T02:38:48.264Z,1.52
2022-07-28T02:41:27.343Z,1.54
2022-07-28T02:44:15.531Z,1.62
2022-07-28T02:46:55.104Z,1.50
2022-07-28T02:49:40.295Z,1.51
2022-07-28T02:52:16.740Z,1.51
2022-07-28T03:05:16.366Z,1.30
2022-07-28T03:07:57.247Z,1.38
2022-07-28T03:10:33.649Z,1.29
2022-07-28T03:13:16.261Z,1.49
2022-07-28T03:15:49.855Z,1.42
2022-07-28T03:18:23.314Z,1.51
2022-07-28T03:31:47.260Z,1.28
2022-07-28T03:34:21.523Z,1.32
2022-07-28T03:37:13.279Z,1.47
2022-07-28T03:39:50.942Z,1.31
2022-07-28T03:42:34.259Z,1.45
2022-07-28T03:59:11.201Z,1.25
2022-07-28T04:01:51.265Z,1.19
2022-07-28T04:04:24.820Z,1.43
2022-07-28T04:07:00.022Z,1.15
2022-07-28T04:09:33.839Z,1.36
2022-07-28T04:12:07.252Z,1.28
2022-07-28T04:14:42.900Z,1.29
2022-07-28T04:24:48.321Z,1.30
2022-07-28T04:27:21.748Z,1.31
2022-07-28T04:29:57.300Z,1.31
2022-07-28T04:32:31.020Z,1.26
2022-07-28T04:35:05.301Z,1.23
2022-07-28T04:37:39.580Z,1.20
2022-07-28T04:53:19.373Z,1.42
2022-07-28T04:55:53.430Z,1.21
2022-07-28T04:58:28.238Z,1.37
2022-07-28T05:01:04.863Z,1.36
2022-07-28T05:03:38.259Z,1.11
2022-07-28T05:20:20.207Z,1.27
2022-07-28T05:23:00.287Z,1.28
2022-07-28T05:25:33.759Z,1.41
2022-07-28T05:28:07.259Z,1.36
2022-07-28T05:30:43.839Z,1.28
2022-07-28T05:33:24.281Z,1.58
2022-07-28T05:46:43.288Z,1.76
2022-07-28T05:49:16.989Z,1.58
2022-07-28T05:51:51.300Z,1.62
2022-07-28T05:54:24.779Z,1.72
2022-07-28T05:56:59.277Z,1.55
2022-07-28T05:59:32.921Z,1.58
2022-07-28T06:12:23.239Z,1.61
2022-07-28T06:15:04.500Z,1.71
2022-07-28T06:17:38.739Z,1.76
2022-07-28T06:20:14.242Z,1.84
2022-07-28T06:22:51.322Z,1.87
2022-07-28T06:25:34.259Z,1.62
2022-07-28T06:28:09.779Z,1.61
2022-07-28T06:40:58.199Z,1.75
2022-07-28T06:43:40.239Z,1.76
2022-07-28T06:46:13.764Z,1.45
2022-07-28T06:48:47.347Z,1.63
2022-07-28T06:51:26.242Z,1.52
2022-07-28T06:54:11.084Z,1.58
2022-07-28T07:07:24.259Z,1.26
2022-07-28T07:09:57.801Z,1.23
2022-07-28T07:12:31.299Z,1.19
2022-07-28T07:15:07.020Z,1.24
2022-07-28T07:17:42.679Z,1.33
2022-07-28T07:34:20.198Z,1.11
2022-07-28T07:37:00.279Z,1.16
2022-07-28T07:39:34.152Z,1.22
2022-07-28T07:42:08.301Z,1.40
2022-07-28T07:44:41.740Z,1.19
2022-07-28T07:47:30.278Z,1.16
2022-07-28T08:00:42.301Z,1.16
2022-07-28T08:03:16.899Z,1.26
2022-07-28T08:06:03.278Z,1.16
2022-07-28T08:08:45.148Z,1.17
2022-07-28T08:11:28.259Z,1.30
2022-07-28T08:14:02.029Z,1.23
2022-07-28T08:26:52.240Z,1.25
2022-07-28T08:29:32.280Z,1.12
2022-07-28T08:32:07.063Z,1.25
2022-07-28T08:34:41.259Z,1.14
2022-07-28T08:37:14.800Z,1.01
2022-07-28T08:39:48.282Z,1.08
2022-07-28T08:53:08.261Z,1.35
2022-07-28T08:55:44.187Z,1.19
2022-07-28T08:58:19.281Z,1.20
2022-07-28T09:00:52.920Z,1.24
2022-07-28T09:03:27.332Z,1.26
2022-07-28T09:06:01.041Z,1.29
2022-07-28T09:08:37.280Z,1.19
2022-07-28T09:19:04.228Z,1.45
2022-07-28T09:21:45.319Z,1.71
2022-07-28T09:24:38.898Z,1.49
2022-07-28T09:27:22.859Z,1.40
2022-07-28T09:30:00.400Z,1.57
2022-07-28T09:32:40.297Z,1.57
2022-07-28T09:46:14.444Z,1.57
2022-07-28T09:48:56.221Z,1.64
2022-07-28T09:51:38.278Z,1.81
2022-07-28T09:54:15.075Z,2.03
2022-07-28T09:56:55.266Z,1.92
2022-07-28T09:59:55.260Z,2.21
2022-07-28T10:13:15.239Z,1.76
2022-07-28T10:16:12.289Z,1.53
2022-07-28T10:18:45.925Z,1.86
2022-07-28T10:21:22.298Z,1.68
2022-07-28T10:23:59.065Z,1.56
2022-07-28T10:26:53.346Z,1.75
2022-07-28T10:29:30.498Z,1.61
2022-07-28T10:39:19.354Z,1.69
2022-07-28T10:41:56.277Z,1.71
2022-07-28T10:44:39.300Z,1.63
2022-07-28T10:47:18.594Z,1.76
2022-07-28T10:50:01.267Z,1.58
2022-07-28T10:52:47.407Z,1.61
2022-07-28T11:06:03.237Z,1.79
2022-07-28T11:08:43.298Z,1.77
2022-07-28T11:11:43.644Z,1.97
2022-07-28T11:14:42.279Z,1.90
2022-07-28T11:17:24.659Z,1.86
2022-07-28T11:34:04.860Z,1.80
2022-07-28T11:37:04.147Z,1.88
2022-07-28T11:39:47.297Z,1.87
2022-07-28T11:42:26.558Z,1.77
2022-07-28T11:45:37.753Z,1.81
2022-07-28T11:48:14.682Z,1.86
2022-07-28T12:01:21.209Z,1.61
2022-07-28T12:04:04.299Z,1.83
2022-07-28T12:06:51.321Z,1.73
2022-07-28T12:09:42.259Z,1.88
2022-07-28T12:12:16.875Z,1.90
2022-07-28T12:14:51.258Z,1.62
2022-07-28T12:28:27.339Z,1.86
2022-07-28T12:31:10.999Z,1.73
2022-07-28T12:33:51.257Z,1.69
2022-07-28T12:36:25.757Z,1.57
2022-07-28T12:39:02.677Z,1.48
2022-07-28T12:52:58.327Z,1.80
2022-07-28T12:55:35.639Z,1.64
2022-07-28T12:58:30.342Z,1.44
2022-07-28T13:01:04.110Z,1.67
2022-07-28T13:03:38.277Z,1.44
2022-07-28T13:06:12.278Z,1.50
2022-07-28T13:08:49.339Z,1.57
2022-07-28T13:22:04.191Z,1.33
2022-07-28T13:24:42.865Z,1.42
2022-07-28T13:27:17.323Z,1.46
2022-07-28T13:29:51.441Z,1.53
2022-07-28T13:32:25.394Z,1.49
2022-07-28T13:35:03.140Z,1.73
2022-07-28T13:48:27.278Z,1.75
2022-07-28T13:51:08.380Z,1.50
2022-07-28T13:53:41.919Z,1.53
2022-07-28T13:56:17.320Z,1.58
2022-07-28T13:58:50.702Z,1.54
2022-07-28T14:15:07.300Z,1.29
2022-07-28T14:17:44.688Z,1.40
2022-07-28T14:20:25.359Z,1.42
2022-07-28T14:22:58.890Z,1.34
2022-07-28T14:25:48.193Z,1.47
2022-07-28T14:28:23.641Z,1.48
2022-07-28T14:41:14.288Z,1.51
2022-07-28T14:43:54.309Z,1.45
2022-07-28T14:46:29.816Z,1.53
2022-07-28T14:49:07.059Z,1.40
2022-07-28T14:51:44.657Z,1.54
2022-07-28T14:54:25.280Z,1.54
2022-07-28T15:07:37.340Z,1.46
2022-07-28T15:10:11.399Z,1.59
2022-07-28T15:12:45.306Z,1.64
2022-07-28T15:15:19.147Z,1.45
2022-07-28T15:17:53.319Z,1.57
2022-07-28T15:33:57.421Z,1.53
2022-07-28T15:36:40.280Z,1.66
2022-07-28T15:39:14.153Z,1.67
2022-07-28T15:41:49.339Z,1.49
2022-07-28T15:44:26.179Z,1.72
2022-07-28T15:47:06.419Z,1.44
2022-07-28T15:49:44.784Z,1.42
2022-07-28T16:02:33.294Z,1.55
2022-07-28T16:05:15.387Z,1.54
2022-07-28T16:07:48.779Z,1.48
2022-07-28T16:10:22.329Z,1.54
2022-07-28T16:12:55.941Z,1.43
2022-07-28T16:29:11.331Z,1.49
2022-07-28T16:31:45.438Z,1.49
2022-07-28T16:34:21.679Z,1.58
2022-07-28T16:36:56.099Z,1.65
2022-07-28T16:39:30.299Z,1.62
2022-07-28T16:42:04.521Z,1.94
2022-07-28T16:44:40.322Z,1.85
2022-07-28T16:54:25.239Z,1.83
2022-07-28T16:57:06.398Z,1.93
2022-07-28T16:59:47.774Z,1.70
2022-07-28T17:02:30.341Z,1.78
2022-07-28T17:05:04.776Z,1.74
2022-07-28T17:07:41.987Z,1.56
2022-07-28T17:20:57.319Z,1.40
2022-07-28T17:23:31.101Z,1.46
2022-07-28T17:27:30.705Z,1.67
2022-07-28T17:29:09.078Z,1.46
2022-07-28T17:31:43.517Z,1.60
2022-07-28T17:34:18.216Z,1.59
2022-07-28T17:47:24.259Z,1.52
2022-07-28T17:50:17.320Z,1.54
2022-07-28T17:52:50.859Z,1.48
2022-07-28T17:55:24.357Z,1.47
2022-07-28T17:58:10.370Z,1.61
2022-07-28T18:00:54.736Z,1.54
2022-07-28T18:03:30.799Z,1.57
2022-07-28T18:14:05.511Z,1.63
2022-07-28T18:16:40.019Z,1.72
2022-07-28T18:19:15.320Z,1.61
2022-07-28T18:21:50.119Z,1.72
2022-07-28T18:24:24.320Z,1.75
2022-07-28T18:26:57.879Z,1.65
2022-07-28T18:29:38.314Z,1.65
2022-07-28T18:42:52.379Z,1.67
2022-07-28T18:45:25.880Z,2.17
2022-07-28T18:48:00.381Z,1.86
2022-07-28T18:50:34.041Z,1.82
2022-07-28T18:53:21.319Z,1.77
2022-07-28T19:09:58.338Z,1.90
2022-07-28T19:12:38.391Z,1.94
2022-07-28T19:15:12.019Z,1.73
2022-07-28T19:17:45.287Z,1.73
2022-07-28T19:20:18.792Z,1.76
2022-07-28T19:22:52.257Z,1.88
2022-07-28T19:36:04.287Z,2.02
2022-07-28T19:38:37.736Z,2.33
2022-07-28T19:41:11.290Z,2.10
2022-07-28T19:43:45.137Z,2.10
2022-07-28T19:46:19.330Z,2.03
2022-07-28T19:48:52.842Z,2.09
2022-07-28T20:01:46.846Z,2.08
2022-07-28T20:04:27.301Z,2.07
2022-07-28T20:07:00.647Z,2.12
2022-07-28T20:12:07.821Z,2.01
2022-07-28T20:14:36.332Z,2.20
2022-07-28T20:27:53.241Z,2.07
2022-07-28T20:30:33.363Z,1.86
2022-07-28T20:33:06.939Z,2.10
2022-07-28T20:35:40.313Z,2.27
2022-07-28T20:38:13.742Z,2.08
2022-07-28T20:40:47.302Z,2.20
2022-07-28T20:43:22.649Z,2.10
2022-07-28T20:56:11.252Z,1.94
2022-07-28T20:58:53.324Z,1.94
2022-07-28T21:01:26.746Z,1.85
2022-07-28T21:04:00.287Z,1.94
2022-07-28T21:06:33.966Z,2.01
2022-07-28T21:09:07.306Z,2.12
2022-07-28T21:22:20.284Z,1.96
2022-07-28T21:24:55.675Z,2.18
2022-07-28T21:27:30.289Z,2.13
2022-07-28T21:30:04.805Z,2.28
2022-07-28T21:32:38.326Z,2.30
2022-07-28T21:35:14.372Z,2.09
2022-07-28T21:48:24.259Z,2.43
2022-07-28T21:51:04.312Z,2.33
2022-07-28T21:53:50.156Z,2.52
2022-07-28T21:56:25.294Z,2.54
2022-07-28T21:58:58.725Z,2.25
2022-07-28T22:01:32.465Z,2.49
2022-07-28T22:04:08.628Z,2.30
2022-07-28T22:16:57.282Z,2.58
2022-07-28T22:19:40.654Z,2.68
2022-07-28T22:22:14.675Z,2.79
2022-07-28T22:24:48.290Z,2.67
2022-07-28T22:27:22.013Z,2.75
2022-07-28T22:29:55.301Z,2.87
2022-07-28T22:43:07.360Z,2.58
2022-07-28T22:45:50.309Z,2.66
2022-07-28T22:48:31.333Z,2.57
2022-07-28T22:51:10.080Z,2.72
2022-07-28T22:53:50.318Z,3.05
2022-07-28T23:10:27.293Z,2.73
2022-07-28T23:13:07.307Z,2.86
2022-07-28T23:15:41.748Z,2.66
2022-07-28T23:18:16.348Z,2.79
2022-07-28T23:20:49.887Z,2.65
2022-07-28T23:23:26.708Z,2.89
2022-07-28T23:36:40.329Z,2.88
2022-07-28T23:39:14.187Z,2.93
2022-07-28T23:41:48.315Z,3.05
2022-07-28T23:44:22.228Z,2.82
2022-07-28T23:46:56.441Z,2.71
2022-07-28T23:49:31.568Z,2.78
